createdAt,value
2022-08-22T00:01:32.483Z,100934.47
2022-08-22T00:02:47.157Z,100926.78
2022-08-22T00:04:13.754Z,100927.47
2022-08-22T00:06:48.680Z,100930.94
2022-08-22T00:09:32.150Z,100930.94
2022-08-22T00:12:36.254Z,100941.50
2022-08-22T00:15:13.242Z,100936.19
2022-08-22T00:18:08.222Z,100931.81
2022-08-22T00:20:54.058Z,100933.53
2022-08-22T00:23:37.304Z,100934.38
2022-08-22T00:26:08.230Z,100930.84
2022-08-22T00:28:41.860Z,100940.50
2022-08-22T00:31:31.963Z,100933.47
2022-08-22T00:34:07.289Z,100939.59
2022-08-22T00:36:40.480Z,100929.94
2022-08-22T00:39:07.632Z,100933.44
2022-08-22T00:42:04.365Z,100942.16
2022-08-22T00:44:52.640Z,100946.56
2022-08-22T00:47:31.318Z,100941.28
2022-08-22T00:50:31.529Z,100940.41
2022-08-22T00:53:37.011Z,100941.25
2022-08-22T00:56:35.164Z,100942.97
2022-08-22T00:59:29.344Z,100936.84
2022-08-22T01:02:04.907Z,100945.56
2022-08-22T01:04:38.184Z,100928.88
2022-08-22T01:07:30.596Z,100937.63
2022-08-22T01:10:54.196Z,100935.84
2022-08-22T01:13:33.679Z,100928.81
2022-08-22T01:16:19.189Z,100928.81
2022-08-22T01:19:23.878Z,100925.25
2022-08-22T01:22:27.757Z,100925.22
2022-08-22T01:25:21.486Z,100927.81
2022-08-22T01:28:17.351Z,100927.81
2022-08-22T01:30:50.350Z,100931.25
2022-08-22T01:33:39.138Z,100925.97
2022-08-22T01:36:30.506Z,100929.47
2022-08-22T01:39:15.311Z,100930.28
2022-08-22T01:42:08.104Z,100928.50
2022-08-22T01:45:02.912Z,100923.22
2022-08-22T01:47:43.486Z,100927.56
2022-08-22T01:50:24.009Z,100935.41
2022-08-22T01:52:58.804Z,100924.88
2022-08-22T01:55:51.356Z,100931.00
2022-08-22T01:58:21.045Z,100937.13
2022-08-22T02:01:14.046Z,100941.44
2022-08-22T02:03:51.267Z,100937.03
2022-08-22T02:06:23.541Z,100932.66
2022-08-22T02:09:20.266Z,100937.00
2022-08-22T02:11:51.162Z,100942.22
2022-08-22T02:14:33.928Z,100938.69
2022-08-22T02:17:13.424Z,100943.91
2022-08-22T02:19:57.462Z,100946.53
2022-08-22T02:22:33.844Z,100941.28
2022-08-22T02:25:13.869Z,100949.16
2022-08-22T02:27:52.018Z,100950.03
2022-08-22T02:30:28.390Z,100945.66
2022-08-22T02:33:04.777Z,100945.59
2022-08-22T02:35:38.711Z,100941.19
2022-08-22T02:38:24.176Z,100948.19
2022-08-22T02:41:05.074Z,100948.16
2022-08-22T02:43:40.193Z,100950.78
2022-08-22T02:46:24.525Z,100956.88
2022-08-22T02:49:12.073Z,100950.66
2022-08-22T02:51:59.956Z,100959.38
2022-08-22T02:54:37.279Z,100955.81
2022-08-22T02:57:14.151Z,100952.22
2022-08-22T03:00:31.973Z,100951.31
2022-08-22T03:02:59.455Z,100955.59
2022-08-22T03:05:26.201Z,100947.72
2022-08-22T03:08:09.460Z,100948.53
2022-08-22T03:10:59.335Z,100953.75
2022-08-22T03:13:36.734Z,100946.75
2022-08-22T03:16:15.513Z,100949.34
2022-08-22T03:19:18.379Z,100948.44
2022-08-22T03:21:58.418Z,100951.00
2022-08-22T03:24:34.129Z,100948.38
2022-08-22T03:27:10.499Z,100950.13
2022-08-22T03:29:40.474Z,100955.38
2022-08-22T03:32:24.155Z,100954.47
2022-08-22T03:35:27.773Z,100949.22
2022-08-22T03:38:08.189Z,100945.66
2022-08-22T03:41:02.057Z,100952.63
2022-08-22T03:43:47.257Z,100955.22
2022-08-22T03:46:46.024Z,100952.56
2022-08-22T03:49:27.743Z,100955.97
2022-08-22T03:52:31.222Z,100955.97
2022-08-22T03:55:17.627Z,100955.03
2022-08-22T03:58:07.183Z,100949.81
2022-08-22T04:01:19.664Z,100963.78
2022-08-22T04:04:23.752Z,100952.34
2022-08-22T04:07:28.272Z,100961.91
2022-08-22T04:10:20.333Z,100960.97
2022-08-22T04:13:24.707Z,100964.44
2022-08-22T04:16:29.426Z,100961.66
2022-08-22T04:19:20.604Z,100959.84
2022-08-22T04:22:02.091Z,100968.56
2022-08-22T04:24:36.814Z,100978.94
2022-08-22T04:27:41.708Z,100981.50
2022-08-22T04:30:22.949Z,100987.59
2022-08-22T04:33:14.286Z,100987.53
2022-08-22T04:36:04.261Z,100979.63
2022-08-22T04:38:42.242Z,100991.91
2022-08-22T04:41:12.601Z,101002.41
2022-08-22T04:43:50.647Z,101002.38
2022-08-22T04:46:39.359Z,101000.59
2022-08-22T04:49:29.381Z,100990.97
2022-08-22T04:52:29.497Z,101003.19
2022-08-22T04:55:37.555Z,101001.44
2022-08-22T04:58:31.594Z,101006.69
2022-08-22T05:01:07.112Z,101005.81
2022-08-22T05:03:39.942Z,101010.25
2022-08-22T05:06:10.390Z,101016.38
2022-08-22T05:08:39.598Z,101009.41
2022-08-22T05:11:07.778Z,101017.31
2022-08-22T05:13:39.944Z,101019.09
2022-08-22T05:16:12.333Z,101017.34
2022-08-22T05:18:44.369Z,101016.47
2022-08-22T05:21:13.872Z,101021.75
2022-08-22T05:23:53.808Z,101017.44
2022-08-22T05:26:21.166Z,101027.00
2022-08-22T05:28:56.333Z,101017.44
2022-08-22T05:31:27.539Z,101019.22
2022-08-22T05:34:03.953Z,101027.06
2022-08-22T05:36:39.112Z,101023.63
2022-08-22T05:39:19.002Z,101030.69
2022-08-22T05:41:45.860Z,101020.31
2022-08-22T05:44:25.216Z,101029.94
2022-08-22T05:46:57.917Z,101026.50
2022-08-22T05:50:03.331Z,101037.94
2022-08-22T05:52:50.156Z,101040.66
2022-08-22T05:55:28.165Z,101040.72
2022-08-22T05:58:16.415Z,101041.69
2022-08-22T06:00:46.156Z,101039.13
2022-08-22T06:03:25.945Z,101039.16
2022-08-22T06:05:54.487Z,101039.16
2022-08-22T06:08:25.284Z,101040.13
2022-08-22T06:10:54.545Z,101038.41
2022-08-22T06:13:29.581Z,101050.69
2022-08-22T06:16:14.180Z,101047.31
2022-08-22T06:18:42.377Z,101052.66
2022-08-22T06:21:18.683Z,101055.44
2022-08-22T06:23:56.673Z,101052.94
2022-08-22T06:26:24.714Z,101053.88
2022-08-22T06:28:54.748Z,101046.16
2022-08-22T06:31:33.251Z,101042.78
2022-08-22T06:33:59.596Z,101041.97
2022-08-22T06:36:33.066Z,101041.16
2022-08-22T06:39:37.979Z,101043.84
2022-08-22T06:42:05.472Z,101040.44
2022-08-22T06:44:35.820Z,101046.59
2022-08-22T06:47:06.338Z,101050.22
2022-08-22T06:49:35.675Z,101038.03
2022-08-22T06:52:07.505Z,101037.22
2022-08-22T06:54:37.070Z,101041.66
2022-08-22T06:57:05.083Z,101042.56
2022-08-22T06:59:35.401Z,101040.91
2022-08-22T07:02:17.312Z,101035.69
2022-08-22T07:04:48.519Z,101035.72
2022-08-22T07:07:18.270Z,101038.41
2022-08-22T07:09:50.349Z,101037.56
2022-08-22T07:12:19.424Z,101040.25
2022-08-22T07:14:50.385Z,101042.91
2022-08-22T07:17:23.437Z,101042.94
2022-08-22T07:20:25.163Z,101043.88
2022-08-22T07:23:01.506Z,101038.63
2022-08-22T07:25:28.210Z,101045.69
2022-08-22T07:28:16.172Z,101041.34
2022-08-22T07:30:54.774Z,101043.13
2022-08-22T07:33:40.682Z,101044.03
2022-08-22T07:36:17.676Z,101047.63
2022-08-22T07:38:49.013Z,101045.00
2022-08-22T07:41:16.518Z,101047.69
2022-08-22T07:43:56.794Z,101049.44
2022-08-22T07:46:31.091Z,101045.97
2022-08-22T07:49:09.573Z,101046.84
2022-08-22T07:51:43.553Z,101049.50
2022-08-22T07:54:12.738Z,101060.06
2022-08-22T07:56:46.434Z,101053.94
2022-08-22T07:59:16.945Z,101053.06
2022-08-22T08:01:50.675Z,101053.97
2022-08-22T08:04:24.841Z,101049.56
2022-08-22T08:06:53.648Z,101051.38
2022-08-22T08:09:20.408Z,101051.34
2022-08-22T08:11:49.682Z,101048.72
2022-08-22T08:14:16.738Z,101052.25
2022-08-22T08:17:04.244Z,101044.31
2022-08-22T08:19:31.110Z,101047.84
2022-08-22T08:21:58.023Z,101048.69
2022-08-22T08:24:39.919Z,101053.09
2022-08-22T08:27:32.017Z,101054.88
2022-08-22T08:30:15.262Z,101052.16
2022-08-22T08:32:43.477Z,101051.28
2022-08-22T08:35:25.869Z,101053.88
2022-08-22T08:37:59.107Z,101048.59
2022-08-22T08:40:31.713Z,101048.53
2022-08-22T08:43:34.936Z,101054.63
2022-08-22T08:46:20.196Z,101049.28
2022-08-22T08:49:06.359Z,101051.00
2022-08-22T08:51:42.109Z,101050.97
2022-08-22T08:54:36.494Z,101048.25
2022-08-22T08:57:29.518Z,101035.88
2022-08-22T09:00:12.949Z,101045.47
2022-08-22T09:02:57.462Z,101039.22
2022-08-22T09:05:58.458Z,101036.50
2022-08-22T09:08:43.652Z,101037.28
2022-08-22T09:11:30.868Z,101040.81
2022-08-22T09:14:34.028Z,101035.47
2022-08-22T09:17:21.389Z,101039.81
2022-08-22T09:20:17.998Z,101045.91
2022-08-22T09:23:10.041Z,101044.03
2022-08-22T09:25:43.217Z,101060.75
2022-08-22T09:28:23.918Z,101047.44
2022-08-22T09:31:33.030Z,101043.84
2022-08-22T09:34:35.518Z,101042.81
2022-08-22T09:37:19.948Z,101039.22
2022-08-22T09:39:52.415Z,101040.91
2022-08-22T09:42:28.376Z,101040.78
2022-08-22T09:45:17.738Z,101042.44
2022-08-22T09:48:07.053Z,101035.31
2022-08-22T09:50:48.720Z,101049.31
2022-08-22T09:53:30.050Z,101044.81
2022-08-22T09:56:11.696Z,101048.31
2022-08-22T09:58:57.740Z,101038.53
2022-08-22T10:01:33.008Z,101037.53
2022-08-22T10:04:19.348Z,101025.97
2022-08-22T10:07:11.763Z,101036.53
2022-08-22T10:09:53.644Z,101040.84
2022-08-22T10:12:35.163Z,101037.22
2022-08-22T10:15:17.352Z,101035.41
2022-08-22T10:17:55.635Z,101031.84
2022-08-22T10:20:28.642Z,101030.03
2022-08-22T10:23:19.113Z,101030.94
2022-08-22T10:26:01.765Z,101031.78
2022-08-22T10:28:56.512Z,101032.66
2022-08-22T10:31:29.370Z,101032.69
2022-08-22T10:34:04.744Z,101024.69
2022-08-22T10:37:05.096Z,101028.13
2022-08-22T10:39:44.296Z,101018.38
2022-08-22T10:42:25.538Z,101021.00
2022-08-22T10:45:16.256Z,101014.75
2022-08-22T10:47:50.449Z,101017.38
2022-08-22T10:50:22.216Z,101010.28
2022-08-22T10:53:12.003Z,101010.19
2022-08-22T10:55:40.708Z,101013.69
2022-08-22T10:58:27.402Z,101011.91
2022-08-22T11:00:58.397Z,101016.13
2022-08-22T11:03:51.166Z,101015.22
2022-08-22T11:06:26.517Z,101013.41
2022-08-22T11:09:05.017Z,101005.38
2022-08-22T11:11:43.542Z,101008.88
2022-08-22T11:14:41.697Z,101010.56
2022-08-22T11:17:30.798Z,101008.78
2022-08-22T11:20:09.157Z,101001.66
2022-08-22T11:23:04.474Z,101004.09
2022-08-22T11:25:53.879Z,101003.16
2022-08-22T11:29:02.743Z,100999.44
2022-08-22T11:31:51.512Z,100994.97
2022-08-22T11:34:37.036Z,100993.97
2022-08-22T11:37:24.086Z,100990.47
2022-08-22T11:40:26.812Z,101000.03
2022-08-22T11:43:18.143Z,100995.50
2022-08-22T11:45:48.256Z,100991.78
2022-08-22T11:48:23.875Z,100989.09
2022-08-22T11:50:56.967Z,100989.72
2022-08-22T11:53:34.150Z,100985.31
2022-08-22T11:56:11.975Z,100990.25
2022-08-22T11:58:45.361Z,100988.38
2022-08-22T12:01:18.792Z,100981.84
2022-08-22T12:04:09.691Z,100980.69
2022-08-22T12:06:48.568Z,100977.91
2022-08-22T12:09:41.816Z,100982.16
2022-08-22T12:12:25.057Z,100972.25
2022-08-22T12:15:21.981Z,100975.59
2022-08-22T12:18:01.617Z,100966.53
2022-08-22T12:20:57.229Z,100961.16
2022-08-22T12:23:50.769Z,100967.22
2022-08-22T12:26:34.275Z,100975.25
2022-08-22T12:29:34.068Z,100968.09
2022-08-22T12:32:12.307Z,100960.81
2022-08-22T12:34:54.578Z,100955.34
2022-08-22T12:37:50.325Z,100953.53
2022-08-22T12:40:27.193Z,100952.72
2022-08-22T12:43:12.068Z,100956.22
2022-08-22T12:45:59.425Z,100951.88
2022-08-22T12:49:21.535Z,100941.13
2022-08-22T12:52:04.274Z,100939.19
2022-08-22T12:54:53.911Z,100939.19
2022-08-22T12:57:40.326Z,100933.72
2022-08-22T13:00:27.023Z,100932.66
2022-08-22T13:02:57.033Z,100930.97
2022-08-22T13:05:26.509Z,100934.44
2022-08-22T13:08:04.381Z,100940.66
2022-08-22T13:10:40.134Z,100936.91
2022-08-22T13:13:12.245Z,100931.41
2022-08-22T13:15:55.754Z,100925.00
2022-08-22T13:18:31.098Z,100928.47
2022-08-22T13:21:00.470Z,100923.97
2022-08-22T13:23:31.218Z,100928.34
2022-08-22T13:26:07.859Z,100932.72
2022-08-22T13:28:45.714Z,100925.81
2022-08-22T13:31:23.129Z,100926.59
2022-08-22T13:33:49.993Z,100927.41
2022-08-22T13:36:19.848Z,100924.69
2022-08-22T13:39:06.626Z,100931.75
2022-08-22T13:41:40.213Z,100927.97
2022-08-22T13:44:19.373Z,100925.22
2022-08-22T13:47:13.051Z,100923.16
2022-08-22T13:49:36.386Z,100924.91
2022-08-22T13:52:29.963Z,100924.78
2022-08-22T13:55:12.436Z,100925.66
2022-08-22T13:57:52.820Z,100928.41
2022-08-22T14:00:28.465Z,100921.44
2022-08-22T14:03:08.107Z,100928.50
2022-08-22T14:05:45.276Z,100932.84
2022-08-22T14:08:18.524Z,100916.88
2022-08-22T14:11:02.396Z,100919.50
2022-08-22T14:13:56.600Z,100928.41
2022-08-22T14:16:34.359Z,100924.78
2022-08-22T14:19:06.000Z,100926.47
2022-08-22T14:21:46.138Z,100928.16
2022-08-22T14:24:18.955Z,100940.66
2022-08-22T14:26:51.215Z,100924.53
2022-08-22T14:29:19.506Z,100934.31
2022-08-22T14:32:02.405Z,100934.41
2022-08-22T14:34:30.138Z,100931.75
2022-08-22T14:37:08.523Z,100931.03
2022-08-22T14:39:43.583Z,100935.50
2022-08-22T14:42:33.865Z,100935.53
2022-08-22T14:45:22.901Z,100934.75
2022-08-22T14:47:55.553Z,100938.47
2022-08-22T14:50:55.081Z,100940.56
2022-08-22T14:53:25.290Z,100936.06
2022-08-22T14:56:15.769Z,100930.81
2022-08-22T14:59:06.758Z,100938.78
2022-08-22T15:01:35.377Z,100937.09
2022-08-22T15:04:06.823Z,100937.03
2022-08-22T15:06:54.739Z,100937.72
2022-08-22T15:09:40.494Z,100925.28
2022-08-22T15:12:25.989Z,100928.81
2022-08-22T15:14:55.910Z,100937.66
2022-08-22T15:17:44.402Z,100931.47
2022-08-22T15:20:22.885Z,100931.31
2022-08-22T15:22:57.428Z,100930.34
2022-08-22T15:25:34.081Z,100935.66
2022-08-22T15:28:20.351Z,100926.75
2022-08-22T15:30:54.182Z,100934.59
2022-08-22T15:33:24.963Z,100923.00
2022-08-22T15:35:54.458Z,100922.13
2022-08-22T15:38:36.464Z,100913.03
2022-08-22T15:41:22.079Z,100914.66
2022-08-22T15:43:54.038Z,100913.63
2022-08-22T15:46:23.624Z,100910.94
2022-08-22T15:49:02.792Z,100903.75
2022-08-22T15:51:52.093Z,100902.88
2022-08-22T15:54:24.790Z,100892.97
2022-08-22T15:56:51.786Z,100895.56
2022-08-22T15:59:48.086Z,100895.53
2022-08-22T16:02:35.342Z,100894.53
2022-08-22T16:05:11.280Z,100882.03
2022-08-22T16:08:09.505Z,100877.56
2022-08-22T16:10:56.198Z,100882.91
2022-08-22T16:13:34.868Z,100884.03
2022-08-22T16:16:25.136Z,100886.78
2022-08-22T16:18:51.496Z,100880.63
2022-08-22T16:21:21.080Z,100873.31
2022-08-22T16:23:50.962Z,100873.38
2022-08-22T16:26:29.525Z,100875.94
2022-08-22T16:28:59.318Z,100875.63
2022-08-22T16:31:44.183Z,100886.19
2022-08-22T16:34:16.522Z,100885.16
2022-08-22T16:36:54.712Z,100887.50
2022-08-22T16:39:21.197Z,100889.34
2022-08-22T16:41:49.349Z,100889.91
2022-08-22T16:44:42.867Z,100888.84
2022-08-22T16:47:13.920Z,100886.41
2022-08-22T16:49:49.459Z,100899.06
2022-08-22T16:52:25.090Z,100885.09
2022-08-22T16:54:58.859Z,100885.00
2022-08-22T16:57:54.432Z,100883.53
2022-08-22T17:00:40.627Z,100892.81
2022-08-22T17:03:16.155Z,100892.41
2022-08-22T17:06:17.018Z,100902.47
2022-08-22T17:09:17.318Z,100903.44
2022-08-22T17:12:11.718Z,100897.63
2022-08-22T17:15:07.366Z,100900.72
2022-08-22T17:17:52.436Z,100908.69
2022-08-22T17:20:46.458Z,100901.59
2022-08-22T17:23:29.511Z,100898.72
2022-08-22T17:26:14.521Z,100907.28
2022-08-22T17:28:42.080Z,100914.88
2022-08-22T17:31:15.943Z,100905.44
2022-08-22T17:34:03.004Z,100909.38
2022-08-22T17:36:44.749Z,100910.50
2022-08-22T17:39:51.924Z,100911.78
2022-08-22T17:42:40.655Z,100913.69
2022-08-22T17:45:28.293Z,100920.91
2022-08-22T17:48:14.885Z,100923.75
2022-08-22T17:50:47.245Z,100915.91
2022-08-22T17:54:00.776Z,100917.03
2022-08-22T17:56:35.084Z,100918.09
2022-08-22T17:59:10.452Z,100930.66
2022-08-22T18:01:43.763Z,100933.59
2022-08-22T18:04:22.761Z,100931.34
2022-08-22T18:06:56.319Z,100946.88
2022-08-22T18:09:30.056Z,100936.31
2022-08-22T18:12:08.179Z,100954.22
2022-08-22T18:14:50.570Z,100959.84
2022-08-22T18:17:25.872Z,100959.09
2022-08-22T18:20:03.914Z,100961.97
2022-08-22T18:22:36.240Z,100975.41
2022-08-22T18:25:23.417Z,100975.63
2022-08-22T18:28:00.720Z,100972.31
2022-08-22T18:30:31.089Z,100971.56
2022-08-22T18:33:22.703Z,100980.56
2022-08-22T18:36:08.240Z,100983.38
2022-08-22T18:39:04.122Z,100987.03
2022-08-22T18:41:34.462Z,100989.81
2022-08-22T18:44:11.056Z,100985.53
2022-08-22T18:46:37.392Z,100992.72
2022-08-22T18:49:35.789Z,100992.88
2022-08-22T18:52:05.332Z,100992.13
2022-08-22T18:54:55.725Z,100991.31
2022-08-22T18:57:53.960Z,100997.69
2022-08-22T19:00:22.572Z,101003.97
2022-08-22T19:03:12.650Z,101001.41
2022-08-22T19:05:51.088Z,101004.19
2022-08-22T19:08:59.400Z,101010.47
2022-08-22T19:11:56.925Z,101012.34
2022-08-22T19:14:47.186Z,101011.47
2022-08-22T19:17:29.133Z,101010.66
2022-08-22T19:20:20.270Z,101015.22
2022-08-22T19:22:51.057Z,101011.72
2022-08-22T19:25:28.917Z,101019.72
2022-08-22T19:28:10.600Z,101010.06
2022-08-22T19:30:44.959Z,101019.81
2022-08-22T19:33:38.421Z,101013.66
2022-08-22T19:36:09.427Z,101019.91
2022-08-22T19:38:57.483Z,101025.28
2022-08-22T19:41:49.116Z,101022.69
2022-08-22T19:44:18.692Z,101033.31
2022-08-22T19:47:07.902Z,101025.44
2022-08-22T19:49:43.669Z,101029.91
2022-08-22T19:52:16.092Z,101029.97
2022-08-22T19:54:55.994Z,101036.16
2022-08-22T19:57:48.414Z,101030.91
2022-08-22T20:00:41.076Z,101041.59
2022-08-22T20:03:19.797Z,101034.56
2022-08-22T20:05:56.917Z,101038.13
2022-08-22T20:08:33.501Z,101042.63
2022-08-22T20:11:22.708Z,101035.63
2022-08-22T20:13:50.018Z,101036.50
2022-08-22T20:16:21.258Z,101037.47
2022-08-22T20:19:11.647Z,101036.59
2022-08-22T20:21:58.828Z,101042.81
2022-08-22T20:24:32.887Z,101042.81
2022-08-22T20:27:13.776Z,101041.09
2022-08-22T20:29:46.833Z,101042.03
2022-08-22T20:32:15.592Z,101047.34
2022-08-22T20:34:42.630Z,101037.66
2022-08-22T20:37:29.370Z,101043.88
2022-08-22T20:40:32.267Z,101038.66
2022-08-22T20:43:10.634Z,101042.22
2022-08-22T20:45:41.187Z,101046.63
2022-08-22T20:48:10.082Z,101052.88
2022-08-22T20:50:36.515Z,101049.41
2022-08-22T20:53:09.876Z,101043.28
2022-08-22T20:55:36.471Z,101046.78
2022-08-22T20:58:06.124Z,101047.72
2022-08-22T21:00:47.466Z,101048.66
2022-08-22T21:03:35.170Z,101052.19
2022-08-22T21:06:16.876Z,101052.22
2022-08-22T21:08:44.594Z,101050.47
2022-08-22T21:11:38.753Z,101045.19
2022-08-22T21:14:22.373Z,101054.06
2022-08-22T21:16:49.023Z,101057.63
2022-08-22T21:19:27.821Z,101062.88
2022-08-22T21:22:10.792Z,101062.03
2022-08-22T21:24:37.261Z,101059.44
2022-08-22T21:27:06.571Z,101063.00
2022-08-22T21:29:34.588Z,101055.97
2022-08-22T21:32:11.373Z,101065.72
2022-08-22T21:34:43.346Z,101062.22
2022-08-22T21:37:15.120Z,101061.34
2022-08-22T21:39:44.956Z,101067.56
2022-08-22T21:42:22.228Z,101069.34
2022-08-22T21:45:00.124Z,101074.63
2022-08-22T21:47:30.749Z,101079.06
2022-08-22T21:50:12.762Z,101080.84
2022-08-22T21:55:24.698Z,101071.22
2022-08-22T21:58:36.061Z,101076.50
2022-08-22T22:01:24.898Z,101083.56
2022-08-22T22:03:51.577Z,101086.22
2022-08-22T22:06:18.041Z,101078.31
2022-08-22T22:08:44.458Z,101085.38
2022-08-22T22:11:13.458Z,101083.59
2022-08-22T22:13:40.536Z,101087.16
2022-08-22T22:16:08.512Z,101088.94
2022-08-22T22:18:36.002Z,101090.69
2022-08-22T22:21:02.598Z,101089.84
2022-08-22T22:23:29.447Z,101087.19
2022-08-22T22:25:57.665Z,101094.25
2022-08-22T22:28:29.248Z,101093.38
2022-08-22T22:30:56.238Z,101095.16
2022-08-22T22:33:28.513Z,101090.78
2022-08-22T22:35:57.657Z,101089.88
2022-08-22T22:38:24.560Z,101095.19
2022-08-22T22:40:52.105Z,101095.22
2022-08-22T22:43:18.787Z,101097.00
2022-08-22T22:45:45.273Z,101089.06
2022-08-22T22:48:11.726Z,101089.09
2022-08-22T22:50:44.164Z,101086.47
2022-08-22T22:53:11.294Z,101086.44
2022-08-22T22:55:42.495Z,101093.50
2022-08-22T22:58:10.416Z,101090.00
2022-08-22T23:00:37.060Z,101087.38
2022-08-22T23:03:06.547Z,101086.50
2022-08-22T23:05:33.745Z,101082.97
2022-08-22T23:08:00.668Z,101086.50
2022-08-22T23:10:28.028Z,101086.50
2022-08-22T23:12:54.582Z,101087.41
2022-08-22T23:15:21.281Z,101090.06
2022-08-22T23:17:47.875Z,101086.50
2022-08-22T23:20:14.332Z,101092.66
2022-08-22T23:22:42.838Z,101088.25
2022-08-22T23:25:09.473Z,101090.91
2022-08-22T23:27:36.566Z,101090.91
2022-08-22T23:30:04.827Z,101098.84
2022-08-22T23:32:31.547Z,101097.97
2022-08-22T23:34:58.151Z,101098.81
2022-08-22T23:37:24.627Z,101085.63
2022-08-22T23:39:51.105Z,101103.22
2022-08-22T23:42:18.140Z,101091.78
2022-08-22T23:44:45.817Z,101097.94
2022-08-22T23:47:13.384Z,101103.22
2022-08-22T23:49:40.580Z,101103.25
2022-08-22T23:52:09.030Z,101104.09
2022-08-22T23:54:35.499Z,101104.09
2022-08-22T23:57:11.457Z,101105.00
2022-08-22T23:59:42.362Z,101103.25
